Time;durP1;ratioP1;P1;durP2;ratioP2;P2;SDS_P1;SDS_P2;PMS_P1;PMS_P2;Temp;Humidity;BMP_temperature;BMP_pressure;BME280_temperature;BME280_humidity;BME280_pressure;Samples;Min_cycle;Max_cycle;Signal;HPM_P1;HPM_P2
2022/11/13 00:01:37;;;;;;;8.00;5.10;;;20.00;73.60;;;;;;10496675;28;20125;-28
2022/11/13 00:06:39;;;;;;;12.57;5.60;;;20.00;73.40;;;;;;10501949;28;20554;-30
2022/11/13 00:11:41;;;;;;;8.82;4.63;;;19.90;73.20;;;;;;10497264;28;20424;-29
2022/11/13 00:16:44;;;;;;;5.93;4.55;;;19.90;73.10;;;;;;10497847;28;20588;-28
2022/11/13 00:21:46;;;;;;;9.82;5.35;;;19.90;73.40;;;;;;10498482;28;20052;-30
2022/11/13 00:26:47;;;;;;;7.70;5.20;;;19.90;73.20;;;;;;10496634;28;20060;-31
2022/11/13 00:31:51;;;;;;;7.05;5.25;;;19.90;73.00;;;;;;10494840;28;20056;-29
2022/11/13 00:36:53;;;;;;;8.73;5.10;;;19.90;72.90;;;;;;10495016;28;20052;-28
2022/11/13 00:41:54;;;;;;;11.05;5.60;;;19.90;72.90;;;;;;10493261;28;20411;-28
2022/11/13 00:46:58;;;;;;;6.80;5.40;;;19.90;72.90;;;;;;10495490;28;20049;-29
2022/11/13 00:52:01;;;;;;;8.00;5.00;;;19.90;72.90;;;;;;10488666;28;20048;-34
2022/11/13 00:57:03;;;;;;;7.75;5.35;;;19.80;72.90;;;;;;10486893;28;20481;-29
2022/11/13 01:02:06;;;;;;;8.05;4.80;;;19.80;72.90;;;;;;10487165;28;20434;-29
2022/11/13 01:07:08;;;;;;;7.38;5.40;;;19.80;73.10;;;;;;10492456;28;20068;-31
2022/11/13 01:12:10;;;;;;;8.02;5.15;;;19.80;73.20;;;;;;10494504;28;20068;-30
2022/11/13 01:17:13;;;;;;;8.48;4.78;;;19.70;72.80;;;;;;10488064;28;20052;-30
2022/11/13 01:22:15;;;;;;;13.68;5.32;;;19.80;72.80;;;;;;10491142;28;20134;-29
2022/11/13 01:27:17;;;;;;;7.18;5.00;;;19.70;72.90;;;;;;10490399;28;20040;-27
2022/11/13 01:32:20;;;;;;;7.55;4.85;;;19.70;72.70;;;;;;10487911;28;20040;-28
2022/11/13 01:37:22;;;;;;;7.18;5.20;;;19.70;72.90;;;;;;10491206;28;20469;-29
2022/11/13 01:42:24;;;;;;;7.18;4.88;;;19.60;72.90;;;;;;10490830;28;20072;-29
2022/11/13 01:47:28;;;;;;;7.95;4.70;;;19.60;73.10;;;;;;10491867;28;20048;-33
2022/11/13 01:52:33;;;;;;;8.32;5.40;;;19.60;73.10;;;;;;10492572;28;20124;-31
2022/11/13 01:57:35;;;;;;;6.47;4.88;;;19.60;73.00;;;;;;10494798;28;20138;-29
2022/11/13 02:02:38;;;;;;;7.40;4.75;;;19.60;73.50;;;;;;10489657;28;20044;-31
2022/11/13 02:07:40;;;;;;;5.72;4.75;;;19.60;73.20;;;;;;10486332;28;20547;-30
2022/11/13 02:12:46;;;;;;;7.22;4.88;;;19.60;73.20;;;;;;10487239;28;20067;-30
2022/11/13 02:17:53;;;;;;;8.50;4.68;;;19.60;73.30;;;;;;10489945;28;20202;-28
2022/11/13 02:23:02;;;;;;;9.82;4.70;;;19.60;73.40;;;;;;10488385;28;20047;-31
2022/11/13 02:28:06;;;;;;;8.10;4.97;;;19.60;73.50;;;;;;10487544;28;20436;-30
2022/11/13 02:33:21;;;;;;;6.15;4.45;;;19.50;73.50;;;;;;10493476;28;20051;-29
2022/11/13 02:38:23;;;;;;;9.48;4.82;;;19.50;73.60;;;;;;10490263;28;20080;-34
2022/11/13 02:43:27;;;;;;;7.45;4.57;;;19.50;73.40;;;;;;10496611;28;20059;-36
2022/11/13 02:48:29;;;;;;;6.53;4.75;;;19.40;73.80;;;;;;10487601;28;20048;-32
2022/11/13 02:53:31;;;;;;;6.68;4.35;;;19.50;73.60;;;;;;10490797;28;20048;-30
2022/11/13 02:58:34;;;;;;;7.22;4.90;;;19.50;73.60;;;;;;10490080;28;20262;-29
2022/11/13 03:03:35;;;;;;;7.47;4.65;;;19.50;73.60;;;;;;10490614;28;20710;-29
2022/11/13 03:08:37;;;;;;;5.50;4.25;;;19.40;73.60;;;;;;10482442;28;20059;-30
2022/11/13 03:13:41;;;;;;;7.20;4.28;;;19.40;73.90;;;;;;10486568;28;20056;-27
2022/11/13 03:18:43;;;;;;;5.82;4.22;;;19.40;73.80;;;;;;10488331;28;20159;-29
2022/11/13 03:23:45;;;;;;;8.10;4.53;;;19.30;74.10;;;;;;10485169;28;20036;-27
2022/11/13 03:28:48;;;;;;;5.97;3.83;;;19.30;74.00;;;;;;10492868;28;20040;-29
2022/11/13 03:33:52;;;;;;;5.53;4.47;;;19.30;74.20;;;;;;10490483;28;20189;-29
2022/11/13 03:38:54;;;;;;;5.55;4.00;;;19.30;74.00;;;;;;10497863;28;20489;-31
2022/11/13 03:43:57;;;;;;;6.32;4.13;;;19.30;74.10;;;;;;10495284;28;20106;-33
2022/11/13 03:48:59;;;;;;;5.80;4.20;;;19.30;74.00;;;;;;10494659;28;20068;-30
2022/11/13 03:54:01;;;;;;;5.13;3.65;;;19.30;74.10;;;;;;10498942;28;20068;-29
2022/11/13 03:59:04;;;;;;;6.50;4.03;;;19.30;74.20;;;;;;10493448;28;20114;-29
2022/11/13 04:04:06;;;;;;;6.60;3.80;;;19.30;74.10;;;;;;10497128;28;20545;-29
2022/11/13 04:09:08;;;;;;;5.75;3.67;;;19.30;73.90;;;;;;10483901;28;20075;-31
2022/11/13 04:14:11;;;;;;;4.55;3.45;;;19.30;73.90;;;;;;10487167;28;20897;-28
2022/11/13 04:19:13;;;;;;;6.97;3.90;;;19.20;74.00;;;;;;10492913;28;20060;-31
2022/11/13 04:24:15;;;;;;;4.93;4.38;;;19.20;74.20;;;;;;10488969;28;20125;-28
2022/11/13 04:29:18;;;;;;;4.63;3.70;;;19.20;74.20;;;;;;10490948;28;20102;-29
2022/11/13 04:34:20;;;;;;;6.00;3.63;;;19.20;74.30;;;;;;10492167;28;20598;-29
2022/11/13 04:39:22;;;;;;;5.18;3.50;;;19.20;74.20;;;;;;10490921;28;20070;-29
2022/11/13 04:44:25;;;;;;;4.80;3.45;;;19.20;74.20;;;;;;10490714;28;20086;-29
2022/11/13 04:49:27;;;;;;;8.18;4.03;;;19.10;74.20;;;;;;10486014;28;20474;-28
2022/11/13 04:54:29;;;;;;;5.13;3.03;;;19.10;74.30;;;;;;10487813;28;20053;-27
2022/11/13 04:59:32;;;;;;;4.55;3.28;;;19.10;74.20;;;;;;10489224;28;20076;-28
2022/11/13 05:04:34;;;;;;;6.35;3.35;;;19.10;74.20;;;;;;10489999;28;20491;-28
2022/11/13 05:09:36;;;;;;;4.38;3.10;;;19.10;74.60;;;;;;10484670;28;20090;-29
2022/11/13 05:14:40;;;;;;;4.55;3.28;;;19.10;73.90;;;;;;10487006;28;20518;-29
2022/11/13 05:19:42;;;;;;;7.07;3.42;;;19.10;73.80;;;;;;10483959;28;20087;-29
2022/11/13 05:24:44;;;;;;;3.72;2.80;;;19.10;74.00;;;;;;10491175;28;20052;-29
2022/11/13 05:29:47;;;;;;;3.92;2.80;;;19.10;73.90;;;;;;10488069;28;20102;-28
2022/11/13 05:34:49;;;;;;;3.88;3.00;;;19.10;73.90;;;;;;10490248;28;20106;-29
2022/11/13 05:39:51;;;;;;;4.10;2.80;;;19.10;73.80;;;;;;10488213;28;20065;-29
2022/11/13 05:44:54;;;;;;;5.75;2.90;;;19.10;73.80;;;;;;10489242;28;20060;-28
2022/11/13 05:49:56;;;;;;;4.82;3.08;;;19.00;73.90;;;;;;10490343;28;20197;-30
2022/11/13 05:54:57;;;;;;;4.10;2.33;;;19.00;73.90;;;;;;10487809;28;20504;-30
2022/11/13 06:00:01;;;;;;;4.68;3.33;;;19.00;73.90;;;;;;10487802;28;20089;-29
2022/11/13 06:05:03;;;;;;;4.57;2.95;;;18.90;74.00;;;;;;10490951;28;20135;-28
2022/11/13 06:10:05;;;;;;;3.90;2.65;;;19.00;73.90;;;;;;10488043;28;20040;-27
2022/11/13 06:15:09;;;;;;;4.43;2.90;;;19.00;73.40;;;;;;10487231;28;20495;-30
2022/11/13 06:20:11;;;;;;;5.88;2.80;;;19.10;73.10;;;;;;10485047;28;20044;-30
2022/11/13 06:25:13;;;;;;;3.95;2.83;;;19.10;73.00;;;;;;10486865;28;20489;-31
2022/11/13 06:30:17;;;;;;;4.40;2.83;;;19.10;72.90;;;;;;10488005;28;20088;-31
2022/11/13 06:35:19;;;;;;;2.67;2.35;;;19.10;72.90;;;;;;10487323;28;20126;-35
2022/11/13 06:40:21;;;;;;;8.02;2.75;;;19.00;73.10;;;;;;10489898;28;20089;-29
2022/11/13 06:45:24;;;;;;;4.22;2.58;;;19.10;73.10;;;;;;10486879;28;20560;-30
2022/11/13 06:50:26;;;;;;;3.05;2.30;;;19.10;73.10;;;;;;10485823;28;20481;-31
2022/11/13 06:55:28;;;;;;;6.10;2.78;;;19.10;73.20;;;;;;10490619;28;20554;-29
2022/11/13 07:00:31;;;;;;;4.07;2.63;;;19.10;73.30;;;;;;10488875;28;20182;-26
2022/11/13 07:15:27;;;;;;;3.33;2.72;;;19.00;73.00;;;;;;10525357;27;1336579;-29
2022/11/13 07:20:29;;;;;;;3.25;2.63;;;19.10;73.30;;;;;;10596451;28;20464;-33
2022/11/13 07:25:31;;;;;;;3.22;2.30;;;19.10;73.40;;;;;;10598613;28;20052;-27
2022/11/13 07:30:34;;;;;;;;;;;19.10;73.80;;;;;;10601534;28;20040;-29
2022/11/13 07:35:36;;;;;;;3.72;2.50;;;19.10;73.90;;;;;;10599298;28;19988;-30
2022/11/13 07:40:38;;;;;;;6.78;2.35;;;19.10;74.00;;;;;;10596333;28;20119;-27
2022/11/13 07:45:41;;;;;;;4.13;2.60;;;19.10;74.40;;;;;;10601798;28;20484;-33
2022/11/13 07:50:43;;;;;;;3.65;2.50;;;19.10;74.40;;;;;;10602257;28;20047;-33
2022/11/13 07:55:45;;;;;;;5.80;2.90;;;19.10;74.50;;;;;;10596779;28;20162;-34
2022/11/13 08:00:48;;;;;;;4.43;2.47;;;19.10;74.10;;;;;;10600418;28;21015;-28
2022/11/13 08:05:50;;;;;;;3.60;2.50;;;19.10;73.90;;;;;;10597911;28;20058;-29
2022/11/13 08:10:52;;;;;;;4.63;2.50;;;19.20;73.80;;;;;;10590956;28;20069;-32
2022/11/13 08:15:59;;;;;;;8.13;2.70;;;19.10;73.80;;;;;;10596313;28;20048;-28
2022/11/13 08:21:02;;;;;;;3.78;2.50;;;19.10;73.90;;;;;;10601277;28;20039;-30
2022/11/13 08:26:05;;;;;;;5.03;2.60;;;19.20;73.60;;;;;;10573488;28;20444;-29
2022/11/13 08:31:12;;;;;;;4.82;2.80;;;19.20;73.50;;;;;;10572172;28;20062;-30
2022/11/13 08:36:14;;;;;;;6.03;2.60;;;19.10;73.70;;;;;;10567811;28;20140;-28
2022/11/13 08:41:16;;;;;;;6.07;2.35;;;19.20;73.70;;;;;;10566796;28;20500;-27
2022/11/13 08:46:19;;;;;;;5.70;2.53;;;19.20;74.40;;;;;;10565029;28;20479;-34
2022/11/13 08:51:21;;;;;;;7.78;2.67;;;19.20;74.80;;;;;;10569852;28;20079;-32
2022/11/13 08:56:22;;;;;;;6.38;2.67;;;19.30;75.30;;;;;;10574430;28;20243;-32
2022/11/13 09:01:26;;;;;;;4.55;2.60;;;19.20;75.40;;;;;;10574364;28;20140;-27
2022/11/13 09:06:28;;;;;;;5.18;2.85;;;19.20;75.70;;;;;;10572596;28;20802;-29
2022/11/13 09:11:30;;;;;;;8.00;3.50;;;19.10;76.10;;;;;;10571163;28;20052;-30
2022/11/13 09:16:33;;;;;;;4.47;2.92;;;19.10;76.20;;;;;;10562936;28;20132;-31
2022/11/13 09:21:35;;;;;;;4.75;3.20;;;19.20;76.30;;;;;;10563435;28;20131;-29
2022/11/13 09:26:37;;;;;;;4.80;3.45;;;19.20;76.60;;;;;;10569981;28;20717;-29
2022/11/13 09:31:40;;;;;;;5.10;3.60;;;19.20;76.70;;;;;;10569717;28;20056;-29
2022/11/13 09:36:42;;;;;;;4.43;2.75;;;19.20;76.20;;;;;;10561287;28;20870;-31
2022/11/13 09:41:49;;;;;;;7.10;3.40;;;19.10;76.90;;;;;;10568563;28;20048;-32
2022/11/13 09:46:58;;;;;;;7.38;3.03;;;19.20;76.30;;;;;;10569915;28;20062;-26
2022/11/13 09:52:05;;;;;;;5.50;3.50;;;19.10;76.60;;;;;;10567990;28;20050;-30
2022/11/13 09:57:22;;;;;;;6.82;2.65;;;19.30;75.70;;;;;;10567527;28;20639;-30
2022/11/13 10:02:34;;;;;;;5.47;3.22;;;19.30;75.70;;;;;;10565428;28;20139;-28
2022/11/13 10:07:42;;;;;;;5.90;2.90;;;19.40;75.80;;;;;;10567100;28;20039;-28
2022/11/13 10:12:46;;;;;;;3.25;2.10;;;19.50;74.90;;;;;;10563730;28;20125;-27
2022/11/13 10:17:53;;;;;;;5.53;2.50;;;19.50;74.70;;;;;;10562331;28;20051;-35
2022/11/13 10:23:01;;;;;;;4.13;2.67;;;19.60;74.70;;;;;;10565508;28;20040;-32
2022/11/13 10:28:22;;;;;;;5.10;2.33;;;19.60;74.80;;;;;;10565747;28;20050;-28
2022/11/13 10:33:25;;;;;;;6.82;2.40;;;19.70;74.90;;;;;;10566746;28;20047;-28
2022/11/13 10:38:33;;;;;;;6.47;2.08;;;19.60;75.10;;;;;;10567026;28;20135;-26
2022/11/13 10:43:35;;;;;;;4.60;2.58;;;19.70;75.00;;;;;;10561550;28;20067;-28
2022/11/13 10:48:38;;;;;;;10.52;3.25;;;19.70;75.00;;;;;;10563937;28;20039;-29
2022/11/13 10:53:42;;;;;;;4.75;2.58;;;19.60;75.60;;;;;;10562195;28;20079;-29
2022/11/13 10:58:44;;;;;;;4.68;2.13;;;19.80;75.20;;;;;;10565901;28;20126;-31
2022/11/13 11:03:51;;;;;;;4.10;2.67;;;19.80;75.40;;;;;;10560079;28;20044;-34
2022/11/13 11:08:53;;;;;;;7.32;2.83;;;19.90;75.00;;;;;;10560542;28;20044;-32
2022/11/13 11:14:05;;;;;;;2.75;2.05;;;19.80;75.60;;;;;;10561400;28;20066;-31
2022/11/13 11:19:12;;;;;;;2.58;1.98;;;19.80;75.50;;;;;;10562422;28;20463;-26
2022/11/13 11:24:21;;;;;;;3.40;2.15;;;19.80;75.70;;;;;;10555506;28;20078;-28
2022/11/13 11:29:30;;;;;;;6.97;2.60;;;19.90;75.50;;;;;;10566176;28;20040;-28
2022/11/13 11:34:40;;;;;;;5.25;2.80;;;19.90;75.60;;;;;;10559982;28;20138;-27
2022/11/13 11:39:46;;;;;;;3.38;2.20;;;19.90;75.70;;;;;;10558353;28;20139;-27
2022/11/13 11:45:02;;;;;;;8.07;2.25;;;19.90;75.50;;;;;;10557290;28;20104;-31
2022/11/13 11:50:13;;;;;;;7.35;2.40;;;19.90;76.00;;;;;;10557376;28;20044;-28
2022/11/13 11:55:44;;;;;;;5.47;2.22;;;19.90;75.20;;;;;;10555459;28;20089;-33
2022/11/13 12:00:50;;;;;;;4.57;2.15;;;20.00;74.90;;;;;;10563515;28;20047;-30
2022/11/13 12:06:05;;;;;;;5.32;2.42;;;19.90;75.00;;;;;;10561309;28;20734;-27
2022/11/13 12:11:15;;;;;;;5.45;3.60;;;19.80;75.90;;;;;;10564266;28;20044;-28
2022/11/13 12:16:23;;;;;;;6.43;2.25;;;19.90;74.70;;;;;;10564215;28;20480;-31
2022/11/13 12:21:34;;;;;;;3.60;2.10;;;20.00;75.00;;;;;;10565856;28;20087;-29
2022/11/13 12:26:43;;;;;;;8.27;2.03;;;20.10;74.80;;;;;;10564222;28;20039;-32
2022/11/13 12:31:58;;;;;;;7.95;1.90;;;20.10;74.70;;;;;;10568429;28;20133;-29
2022/11/13 12:37:12;;;;;;;8.93;2.75;;;20.10;74.50;;;;;;10567539;28;20128;-30
2022/11/13 12:42:22;;;;;;;4.95;2.17;;;20.00;75.00;;;;;;10568156;28;20438;-28
2022/11/13 12:47:24;;;;;;;4.60;2.00;;;20.10;74.60;;;;;;10569289;28;20043;-29
2022/11/13 12:52:27;;;;;;;3.70;1.98;;;20.20;74.10;;;;;;10573882;28;20134;-31
2022/11/13 12:57:31;;;;;;;4.22;2.97;;;20.10;74.30;;;;;;10570986;28;20048;-28
2022/11/13 13:02:43;;;;;;;2.25;2.00;;;20.10;74.00;;;;;;10567448;28;20044;-32
2022/11/13 13:08:24;;;;;;;2.90;1.73;;;20.20;72.80;;;;;;10566814;28;20407;-29
2022/11/13 13:13:35;;;;;;;4.95;2.75;;;20.30;73.30;;;;;;10563219;28;20051;-29
2022/11/13 13:18:39;;;;;;;3.88;1.85;;;20.40;73.10;;;;;;10572035;28;20508;-28
2022/11/13 13:23:45;;;;;;;4.57;1.90;;;20.40;73.00;;;;;;10569300;28;20040;-28
2022/11/13 13:28:50;;;;;;;3.28;1.92;;;20.50;72.70;;;;;;10549912;28;20047;-36
2022/11/13 13:34:13;;;;;;;3.58;1.85;;;20.50;72.80;;;;;;10562568;28;20059;-31
2022/11/13 13:39:30;;;;;;;7.07;2.55;;;20.50;72.50;;;;;;10554979;28;20067;-37
2022/11/13 13:44:54;;;;;;;4.82;1.80;;;20.60;72.10;;;;;;10552622;28;20093;-36
2022/11/13 13:49:57;;;;;;;2.60;1.80;;;20.80;71.30;;;;;;10556817;28;20084;-34
2022/11/13 13:55:02;;;;;;;5.70;2.13;;;20.80;71.70;;;;;;10556601;28;20047;-29
2022/11/13 14:00:11;;;;;;;3.78;1.65;;;20.80;71.90;;;;;;10560584;28;20147;-28
2022/11/13 14:05:25;;;;;;;5.88;1.98;;;20.90;71.40;;;;;;10566919;28;20089;-28
2022/11/13 14:10:28;;;;;;;2.92;1.67;;;20.90;71.10;;;;;;10565696;28;20084;-31
2022/11/13 14:15:33;;;;;;;4.78;2.00;;;21.00;70.90;;;;;;10557888;28;20108;-28
2022/11/13 14:20:41;;;;;;;2.45;1.50;;;21.10;70.80;;;;;;10567067;28;20070;-29
2022/11/13 14:25:46;;;;;;;5.45;1.88;;;21.10;70.40;;;;;;10565873;28;20567;-30
2022/11/13 14:30:54;;;;;;;6.60;1.58;;;21.20;70.10;;;;;;10565377;28;20060;-28
2022/11/13 14:35:57;;;;;;;5.65;1.60;;;21.20;69.80;;;;;;10557545;28;20047;-30
2022/11/13 14:41:02;;;;;;;5.82;2.13;;;21.30;70.00;;;;;;10557076;28;20121;-28
2022/11/13 14:46:06;;;;;;;3.13;1.70;;;21.40;69.80;;;;;;10554445;28;20545;-28
2022/11/13 14:51:23;;;;;;;3.22;1.70;;;21.40;69.70;;;;;;10564666;28;20144;-34
2022/11/13 14:56:34;;;;;;;5.32;2.05;;;21.50;69.60;;;;;;10562702;28;20116;-25
2022/11/13 15:01:37;;;;;;;2.20;1.42;;;21.50;69.60;;;;;;10559221;28;20454;-26
2022/11/13 15:06:41;;;;;;;7.57;2.10;;;21.60;69.70;;;;;;10563526;28;20105;-32
2022/11/13 15:11:44;;;;;;;6.03;2.30;;;21.60;69.60;;;;;;10564797;28;20056;-31
2022/11/13 15:16:48;;;;;;;7.70;3.65;;;21.70;69.60;;;;;;10556194;28;20120;-29
2022/11/13 15:21:50;;;;;;;12.75;3.25;;;21.70;69.50;;;;;;10559026;28;20059;-34
2022/11/13 15:26:53;;;;;;;12.02;4.05;;;21.70;69.40;;;;;;10561027;28;20036;-30
2022/11/13 15:31:56;;;;;;;7.68;2.90;;;21.80;69.60;;;;;;10559831;28;20131;-32
2022/11/13 15:36:58;;;;;;;10.20;3.45;;;21.80;69.50;;;;;;10565070;28;20587;-31
2022/11/13 15:42:01;;;;;;;7.82;3.35;;;21.80;69.30;;;;;;10570804;28;20043;-31
2022/11/13 15:47:03;;;;;;;5.25;3.22;;;21.80;69.20;;;;;;10567362;28;20071;-29
2022/11/13 15:52:06;;;;;;;5.70;2.40;;;21.90;69.30;;;;;;10565843;28;20067;-30
2022/11/13 15:57:17;;;;;;;4.20;2.40;;;21.90;69.40;;;;;;10564268;28;20083;-31
2022/11/13 16:02:19;;;;;;;4.80;2.20;;;21.90;69.20;;;;;;10563105;28;20048;-28
2022/11/13 16:07:26;;;;;;;5.72;2.72;;;21.80;69.10;;;;;;10564806;28;20048;-28
2022/11/13 16:12:30;;;;;;;5.60;2.40;;;21.80;69.20;;;;;;10559087;28;20138;-28
2022/11/13 16:17:39;;;;;;;5.47;2.50;;;21.80;69.10;;;;;;10565618;27;20044;-29
2022/11/13 16:22:41;;;;;;;5.10;2.83;;;21.80;69.10;;;;;;10559732;28;20544;-36
2022/11/13 16:27:45;;;;;;;5.07;3.10;;;21.80;69.20;;;;;;10553939;28;20052;-29
2022/11/13 16:32:47;;;;;;;5.50;3.03;;;21.80;69.20;;;;;;10563375;28;20048;-29
2022/11/13 16:37:49;;;;;;;;;;;21.80;69.20;;;;;;10552761;28;20047;-29
2022/11/13 16:42:52;;;;;;;6.07;3.42;;;21.70;69.30;;;;;;10560766;28;19971;-27
2022/11/13 16:47:56;;;;;;;5.72;3.17;;;21.70;69.50;;;;;;10546419;28;20143;-31
2022/11/13 16:52:58;;;;;;;9.40;3.85;;;21.60;69.50;;;;;;10543182;28;20106;-28
2022/11/13 16:58:02;;;;;;;7.07;3.50;;;21.60;69.80;;;;;;10557775;28;20109;-27
2022/11/13 17:03:04;;;;;;;4.90;3.35;;;21.60;70.20;;;;;;10547866;28;20138;-29
2022/11/13 17:08:06;;;;;;;8.00;3.60;;;21.50;70.40;;;;;;10560395;28;20043;-30
2022/11/13 17:13:10;;;;;;;7.78;3.67;;;21.50;70.60;;;;;;10557443;28;20153;-33
2022/11/13 17:18:13;;;;;;;7.75;4.22;;;21.60;70.60;;;;;;10560424;28;20043;-29
2022/11/13 17:23:15;;;;;;;10.02;5.05;;;21.60;70.60;;;;;;10554727;28;20055;-30
2022/11/13 17:28:19;;;;;;;13.60;5.57;;;21.50;70.50;;;;;;10548070;28;20071;-32
2022/11/13 17:33:21;;;;;;;16.27;5.75;;;21.50;70.40;;;;;;10544256;28;20465;-30
2022/11/13 17:38:23;;;;;;;11.13;5.07;;;21.50;70.20;;;;;;10554637;28;20051;-35
2022/11/13 17:43:27;;;;;;;19.88;5.50;;;21.40;69.80;;;;;;10564463;28;20046;-31
2022/11/13 17:48:31;;;;;;;18.20;5.60;;;21.40;70.20;;;;;;10558058;28;20043;-33
2022/11/13 17:53:33;;;;;;;14.80;5.40;;;21.40;70.90;;;;;;10550136;28;20373;-33
2022/11/13 17:58:38;;;;;;;;;;;21.30;71.80;;;;;;10549960;28;20056;-29
2022/11/13 18:03:41;;;;;;;14.55;5.70;;;21.30;71.80;;;;;;10558276;28;20018;-31
2022/11/13 18:08:44;;;;;;;16.05;5.25;;;21.30;71.90;;;;;;10555933;28;20487;-30
2022/11/13 18:13:48;;;;;;;10.35;4.97;;;21.20;72.00;;;;;;10556665;28;20163;-28
2022/11/13 18:18:54;;;;;;;9.45;5.10;;;21.10;72.30;;;;;;10549097;28;20040;-31
2022/11/13 18:23:57;;;;;;;14.40;4.80;;;21.00;72.50;;;;;;10561964;28;20052;-31
2022/11/13 18:29:01;;;;;;;12.38;5.55;;;21.00;72.70;;;;;;10556919;28;20130;-31
2022/11/13 18:34:05;;;;;;;12.52;4.70;;;21.00;73.30;;;;;;10554060;28;20097;-28
2022/11/13 18:39:06;;;;;;;14.15;4.78;;;20.90;72.90;;;;;;10548020;28;20040;-30
2022/11/13 18:44:10;;;;;;;12.10;4.32;;;20.90;73.00;;;;;;10549880;28;20567;-29
2022/11/13 18:49:12;;;;;;;10.95;4.82;;;20.80;73.10;;;;;;10551659;28;20074;-31
2022/11/13 18:54:14;;;;;;;10.77;5.20;;;20.80;73.30;;;;;;10559961;28;20476;-31
2022/11/13 18:59:17;;;;;;;10.63;6.40;;;20.70;73.00;;;;;;10562758;28;20085;-31
2022/11/13 19:04:19;;;;;;;17.77;7.53;;;20.60;73.30;;;;;;10551372;28;20154;-30
2022/11/13 19:09:21;;;;;;;13.77;7.72;;;20.60;73.00;;;;;;10556921;28;20044;-31
2022/11/13 19:14:24;;;;;;;13.93;8.65;;;20.60;73.20;;;;;;10549804;28;20081;-30
2022/11/13 19:19:27;;;;;;;15.77;7.75;;;20.50;73.20;;;;;;10549855;28;20083;-28
2022/11/13 19:24:29;;;;;;;;;;;20.50;73.70;;;;;;10557592;28;20571;-31
2022/11/13 19:29:32;;;;;;;11.63;7.90;;;20.40;73.10;;;;;;10550896;28;19930;-30
2022/11/13 19:34:34;;;;;;;11.18;6.40;;;20.40;73.10;;;;;;10554883;28;20048;-31
2022/11/13 19:39:36;;;;;;;11.57;5.47;;;20.40;72.60;;;;;;10541786;28;20048;-34
2022/11/13 19:44:39;;;;;;;9.82;4.80;;;20.50;72.40;;;;;;10541398;28;20177;-28
2022/11/13 19:49:42;;;;;;;8.68;4.75;;;20.50;72.60;;;;;;10552324;28;20078;-29
2022/11/13 19:54:44;;;;;;;7.65;4.45;;;20.40;72.70;;;;;;10556437;28;20075;-30
2022/11/13 19:59:47;;;;;;;8.07;4.32;;;20.40;72.90;;;;;;10553482;28;20045;-28
2022/11/13 20:04:49;;;;;;;7.25;3.58;;;20.40;72.80;;;;;;10547843;28;20055;-33
2022/11/13 20:09:51;;;;;;;6.82;4.22;;;20.40;72.80;;;;;;10561979;28;20110;-34
2022/11/13 20:14:54;;;;;;;;;;;20.40;73.00;;;;;;10552904;28;20087;-35
2022/11/13 20:19:57;;;;;;;7.07;4.43;;;20.40;73.40;;;;;;10560920;28;19923;-28
2022/11/13 20:24:59;;;;;;;8.93;4.15;;;20.40;73.20;;;;;;10560290;28;20220;-29
2022/11/13 20:30:02;;;;;;;13.57;4.72;;;20.40;73.60;;;;;;10557973;28;20150;-31
2022/11/13 20:35:05;;;;;;;6.05;3.80;;;20.30;73.40;;;;;;10560535;28;20053;-30
2022/11/13 20:40:08;;;;;;;7.43;3.58;;;20.40;73.40;;;;;;10564372;28;20047;-30
2022/11/13 20:45:11;;;;;;;6.97;3.65;;;20.40;73.60;;;;;;10559105;28;20054;-32
2022/11/13 20:50:13;;;;;;;7.78;3.88;;;20.40;73.60;;;;;;10557389;28;20055;-31
2022/11/13 20:55:15;;;;;;;8.23;3.80;;;20.40;73.80;;;;;;10548349;28;20079;-29
2022/11/13 21:00:19;;;;;;;7.05;3.83;;;20.40;73.70;;;;;;10557203;28;20075;-32
2022/11/13 21:05:21;;;;;;;5.75;3.47;;;20.30;73.60;;;;;;10554929;28;20069;-31
2022/11/13 21:10:23;;;;;;;5.43;3.20;;;20.30;73.80;;;;;;10550328;28;20075;-29
2022/11/13 21:15:28;;;;;;;5.40;3.58;;;20.40;73.70;;;;;;10558874;28;20120;-29
2022/11/13 21:20:30;;;;;;;9.40;3.83;;;20.30;73.80;;;;;;10555734;28;20495;-29
2022/11/13 21:25:32;;;;;;;5.93;3.70;;;20.30;73.90;;;;;;10560160;28;20124;-29
2022/11/13 21:30:35;;;;;;;7.85;3.13;;;20.30;74.20;;;;;;10566532;28;20039;-32
2022/11/13 21:35:38;;;;;;;5.75;3.78;;;20.30;74.40;;;;;;10564404;28;20457;-29
2022/11/13 21:40:39;;;;;;;8.68;3.60;;;20.30;74.30;;;;;;10561437;28;20200;-29
2022/11/13 21:45:43;;;;;;;12.07;3.63;;;20.30;74.10;;;;;;10574318;28;20138;-27
2022/11/13 21:50:45;;;;;;;6.47;3.38;;;20.30;74.00;;;;;;10563475;28;20385;-31
2022/11/13 21:55:49;;;;;;;8.02;3.50;;;20.20;73.80;;;;;;10565730;28;20488;-32
2022/11/13 22:00:52;;;;;;;9.00;3.55;;;20.30;73.90;;;;;;10566656;28;20063;-32
2022/11/13 22:06:16;;;;;;;10.38;4.32;;;20.30;73.80;;;;;;10554949;28;20162;-32
2022/11/13 22:11:18;;;;;;;6.20;3.50;;;20.20;73.60;;;;;;10561101;28;20100;-29
2022/11/13 22:16:23;;;;;;;5.18;3.42;;;20.20;73.50;;;;;;10556368;28;20108;-27
2022/11/13 22:21:26;;;;;;;6.10;3.42;;;20.20;73.50;;;;;;10562943;28;20075;-35
2022/11/13 22:26:30;;;;;;;7.00;3.40;;;20.20;72.90;;;;;;10569386;28;20051;-33
2022/11/13 22:31:34;;;;;;;7.60;3.42;;;20.20;72.90;;;;;;10563926;28;20131;-30
2022/11/13 22:36:37;;;;;;;6.57;3.33;;;20.10;72.90;;;;;;10560758;28;20134;-32
2022/11/13 22:41:39;;;;;;;4.63;3.22;;;20.20;72.70;;;;;;10553151;28;20085;-29
2022/11/13 22:46:42;;;;;;;5.18;3.70;;;20.10;72.70;;;;;;10537679;28;20669;-29
2022/11/13 22:51:44;;;;;;;5.63;3.40;;;20.10;72.70;;;;;;10550133;28;20479;-30
2022/11/13 22:56:45;;;;;;;10.82;3.72;;;20.10;72.60;;;;;;10559215;28;20048;-30
2022/11/13 23:01:49;;;;;;;5.53;3.20;;;20.10;72.60;;;;;;10558702;28;20179;-28
2022/11/13 23:06:50;;;;;;;5.07;3.22;;;20.00;72.60;;;;;;10565468;28;20047;-28
2022/11/13 23:11:53;;;;;;;8.68;3.92;;;20.00;72.70;;;;;;10564139;28;20528;-34
2022/11/13 23:16:56;;;;;;;7.10;3.53;;;20.00;72.50;;;;;;10554239;28;20421;-28
2022/11/13 23:21:58;;;;;;;5.32;3.45;;;20.00;72.30;;;;;;10555757;28;20124;-28
2022/11/13 23:27:00;;;;;;;4.78;3.38;;;19.90;72.40;;;;;;10556442;28;20089;-30
2022/11/13 23:32:03;;;;;;;6.10;3.78;;;19.90;72.40;;;;;;10553817;28;20047;-28
2022/11/13 23:37:05;;;;;;;6.03;3.55;;;19.90;72.00;;;;;;10560098;28;20047;-28
2022/11/13 23:42:07;;;;;;;3.75;2.70;;;19.90;72.10;;;;;;10551373;28;20464;-27
2022/11/13 23:47:10;;;;;;;5.70;3.45;;;19.90;71.90;;;;;;10560003;28;20051;-33
2022/11/13 23:52:12;;;;;;;5.78;3.45;;;19.90;71.80;;;;;;10561742;28;20044;-28
2022/11/13 23:57:14;;;;;;;4.38;3.15;;;19.90;71.70;;;;;;10559819;28;20788;-28
